Horizon 9 — 3EXF8 — position and weather

sailwx.info

Track history (hours):
 
Tides and Currents Weather Stations Pressure Air Temp Water Temp Dewpoint Dewpoint Depression Visibility Wind Speed Wind Dir Waves Ship Positions

Horizon 9

Last reported at 2018-Feb-19 15:32 UTC. Time now 2018-Feb-20 17:11 UTC.
Position N 23°46' E 125°01'.

Length 120 m; draft 8.1 m.

Type: Cargo ship. MMSI: 374346000.

Date/timePositionNaut miles runAvg speedWind from/ knotsBaromVisibWave heightAir tempDewpointWater temp
2018-Feb-19 15:32N 23°46' E 125°01'011.0
2018-Feb-19 15:30N 23°46' E 125°01'810.3
2018-Feb-19 14:44N 23°51' E 125°08'  
2018-Feb-15 19:18N 34°21' E 138°25'3 8.9
2018-Feb-15 18:59N 34°22' E 138°28'5 9.0
2018-Feb-15 18:27N 34°24' E 138°34'4 9.0
2018-Feb-15 17:59N 34°26' E 138°38'6 9.2
2018-Feb-15 17:23N 34°28' E 138°44'6 9.6
2018-Feb-15 16:44N 34°31' E 138°51'210.1
2018-Feb-15 16:30N 34°32' E 138°54'510.2
2018-Feb-15 16:00N 34°34' E 138°59'611.1
2018-Feb-15 15:30N 34°38' E 139°04'810.2
2018-Feb-15 14:45N 34°44' E 139°10'310.8
2018-Feb-15 14:29N 34°46' E 139°12'510.2
2018-Feb-15 14:00N 34°50' E 139°16'5 9.2
2018-Feb-15 13:30N 34°53' E 139°21'5 9.3
2018-Feb-15 13:00N 34°55' E 139°26'510.1
2018-Feb-15 12:30N 34°58' E 139°31'610.7
2018-Feb-15 11:59N 35°02' E 139°36'511.0
2018-Feb-15 11:29N 35°05' E 139°41'510.6
2018-Feb-15 11:00N 35°09' E 139°45'611.8
2018-Feb-15 10:30N 35°15' E 139°46'611.8
2018-Feb-15 10:01N 35°20' E 139°43'511.0
2018-Feb-15 09:30N 35°25' E 139°44'3 6.2
2018-Feb-15 09:01N 35°28' E 139°43'0 0.1
2018-Feb-15 08:28N 35°28' E 139°43'0 0.0
2018-Feb-15 07:58N 35°28' E 139°43'0 0.0
2018-Feb-15 07:28N 35°28' E 139°43'0 0.0
2018-Feb-15 06:58N 35°28' E 139°43'0 0.0
2018-Feb-15 06:25N 35°28' E 139°43'0 0.0
2018-Feb-15 05:58N 35°28' E 139°43'0 0.0
2018-Feb-15 05:28N 35°28' E 139°43'0 0.0
2018-Feb-15 04:58N 35°28' E 139°43'0 0.0
2018-Feb-15 04:28N 35°28' E 139°43'0 0.0
2018-Feb-15 03:55N 35°28' E 139°43'0 0.0
2018-Feb-15 03:28N 35°28' E 139°43'0 0.0
2018-Feb-15 02:58N 35°28' E 139°43'0 0.0
2018-Feb-15 02:28N 35°28' E 139°43'0 0.0
2018-Feb-15 01:58N 35°28' E 139°43'0 0.0
2018-Feb-15 01:28N 35°28' E 139°43'0 0.0
2018-Feb-15 00:58N 35°28' E 139°43'0 0.0
2018-Feb-15 00:28N 35°28' E 139°43'0 0.0
2018-Feb-14 23:58N 35°28' E 139°43'0 0.0
2018-Feb-14 23:28N 35°28' E 139°43'0 0.0
2018-Feb-14 22:58N 35°28' E 139°43'0 0.0
2018-Feb-14 22:28N 35°28' E 139°43'0 0.0
2018-Feb-14 21:58N 35°28' E 139°43'0 0.0
2018-Feb-14 21:28N 35°28' E 139°43'0 0.0
2018-Feb-14 20:58N 35°28' E 139°43'0 0.0
2018-Feb-14 20:28N 35°28' E 139°43'0 0.0
2018-Feb-14 19:58N 35°28' E 139°43'0 0.0
2018-Feb-14 19:28N 35°28' E 139°43'0 0.0
2018-Feb-14 18:58N 35°28' E 139°43'0 0.0
2018-Feb-14 18:28N 35°28' E 139°43'0 0.0
2018-Feb-14 17:55N 35°28' E 139°43'0 0.0
2018-Feb-14 17:28N 35°28' E 139°43'0 0.0
2018-Feb-14 16:58N 35°28' E 139°43'0 0.0
2018-Feb-14 16:28N 35°28' E 139°43'0 0.0
2018-Feb-14 15:58N 35°28' E 139°43'0 0.0
2018-Feb-14 15:28N 35°28' E 139°43'0 0.0
2018-Feb-14 14:58N 35°28' E 139°43'0 0.0
2018-Feb-14 14:28N 35°28' E 139°43'0 0.0
2018-Feb-14 13:58N 35°28' E 139°43'0 0.0
2018-Feb-14 13:28N 35°28' E 139°43'0 0.0
2018-Feb-14 12:58N 35°28' E 139°43'0 0.0
2018-Feb-14 12:28N 35°28' E 139°43'0 0.0
2018-Feb-14 11:58N 35°28' E 139°43'0 0.0
2018-Feb-14 11:28N 35°28' E 139°43'0 0.0
2018-Feb-14 10:58N 35°28' E 139°43'0 0.0
2018-Feb-14 10:31N 35°28' E 139°43'0 0.0
2018-Feb-14 10:01N 35°28' E 139°43'0 0.0
2018-Feb-14 09:30N 35°28' E 139°43'0 0.0
2018-Feb-14 09:00N 35°28' E 139°43'0 0.0
2018-Feb-14 08:31N 35°28' E 139°43'0 0.0
2018-Feb-14 08:00N 35°28' E 139°43'0 0.0
2018-Feb-14 07:30N 35°28' E 139°43'0 0.0
2018-Feb-14 07:00N 35°28' E 139°43'0 0.0
2018-Feb-14 06:30N 35°28' E 139°43'0 0.0
2018-Feb-14 06:00N 35°28' E 139°43'0 0.0
2018-Feb-14 05:30N 35°28' E 139°43'0 0.0
2018-Feb-14 05:00N 35°28' E 139°43'0 0.0
2018-Feb-14 04:30N 35°28' E 139°43'0 0.0
2018-Feb-14 04:00N 35°28' E 139°43'0 0.0
2018-Feb-14 03:30N 35°28' E 139°43'0 0.0
2018-Feb-14 03:00N 35°28' E 139°43'0 0.0
2018-Feb-14 02:30N 35°28' E 139°43'0 0.0
2018-Feb-14 02:00N 35°28' E 139°43'0 0.0
2018-Feb-14 01:30N 35°28' E 139°43'0 0.0
2018-Feb-14 01:00N 35°28' E 139°43'0 0.0
2018-Feb-14 00:30N 35°28' E 139°43'0 0.0
2018-Feb-14 00:00N 35°28' E 139°43'0 0.0
2018-Feb-13 23:30N 35°28' E 139°43'0 0.0
2018-Feb-13 23:00N 35°28' E 139°43'0 0.0
2018-Feb-13 22:30N 35°28' E 139°43'0 0.0
2018-Feb-13 22:00N 35°28' E 139°43'0 0.0
2018-Feb-13 21:30N 35°28' E 139°43'0 0.0
2018-Feb-13 21:00N 35°28' E 139°43'0 0.0
2018-Feb-13 20:30N 35°28' E 139°43'0 0.0
2018-Feb-13 20:00N 35°28' E 139°43'0 0.0
2018-Feb-13 19:30N 35°28' E 139°43'0 0.0
2018-Feb-13 19:00N 35°28' E 139°43'0 0.0
2018-Feb-13 18:30N 35°28' E 139°43'0 0.0
2018-Feb-13 18:00N 35°28' E 139°43'0 0.0
2018-Feb-13 17:30N 35°28' E 139°43'0 0.0
2018-Feb-13 17:00N 35°28' E 139°43'0 0.0
2018-Feb-13 16:30N 35°28' E 139°43'0 0.0
2018-Feb-13 16:00N 35°28' E 139°43'0 0.0
2018-Feb-13 15:30N 35°28' E 139°43'0 0.0
2018-Feb-13 15:00N 35°28' E 139°43'0 0.0
2018-Feb-13 14:30N 35°28' E 139°43'0 0.0
2018-Feb-13 14:00N 35°28' E 139°43'0 0.0
2018-Feb-13 13:30N 35°28' E 139°43'0 0.0
2018-Feb-13 13:00N 35°28' E 139°43'0 0.0
2018-Feb-13 12:30N 35°28' E 139°43'0 0.0
2018-Feb-13 12:00N 35°28' E 139°43'0 0.0
2018-Feb-13 11:30N 35°28' E 139°43'0 0.0
2018-Feb-13 11:00N 35°28' E 139°43'0 0.0
2018-Feb-13 10:30N 35°28' E 139°43'0 0.0
2018-Feb-13 10:00N 35°28' E 139°43'0 0.0
2018-Feb-13 09:30N 35°28' E 139°43'0 0.0
2018-Feb-13 09:00N 35°28' E 139°43'0 0.0
2018-Feb-13 08:30N 35°28' E 139°43'0 0.0
2018-Feb-13 08:00N 35°28' E 139°43'0 0.0
2018-Feb-13 07:30N 35°28' E 139°43'0 0.0
2018-Feb-13 07:00N 35°28' E 139°43'0 0.0
2018-Feb-13 06:30N 35°28' E 139°43'0 0.0
2018-Feb-13 06:00N 35°28' E 139°43'0 0.0
2018-Feb-13 05:30N 35°28' E 139°43'0 0.0
2018-Feb-13 05:00N 35°28' E 139°43'0 0.0
2018-Feb-13 04:30N 35°28' E 139°43'0 0.0
2018-Feb-13 04:00N 35°28' E 139°43'0 0.0
2018-Feb-13 03:30N 35°28' E 139°43'0 0.0
2018-Feb-13 03:00N 35°28' E 139°43'0 0.0
2018-Feb-13 02:30N 35°28' E 139°43'0 0.0
2018-Feb-13 02:00N 35°28' E 139°43'0 0.0
2018-Feb-13 01:30N 35°28' E 139°43'0 0.0
2018-Feb-13 01:00N 35°28' E 139°43'0 0.0
2018-Feb-13 00:30N 35°28' E 139°43'0 0.0
2018-Feb-13 00:00N 35°28' E 139°43'0 0.0
2018-Feb-12 23:30N 35°28' E 139°43'0 0.0
2018-Feb-12 23:00N 35°28' E 139°43'0 0.0
2018-Feb-12 22:30N 35°28' E 139°43'0 0.0
2018-Feb-12 22:00N 35°28' E 139°43'0 0.0
2018-Feb-12 21:30N 35°28' E 139°43'0 0.0
2018-Feb-12 20:54N 35°28' E 139°43'0 0.0
2018-Feb-12 20:30N 35°28' E 139°43'0 0.0
2018-Feb-12 19:59N 35°28' E 139°43'0 0.0
2018-Feb-12 19:29N 35°28' E 139°43'0 0.0
2018-Feb-12 18:59N 35°28' E 139°43'0 0.0
2018-Feb-12 18:29N 35°28' E 139°43'0 0.0
2018-Feb-12 17:59N 35°28' E 139°43'0 0.0
2018-Feb-12 17:29N 35°28' E 139°43'0 0.0
2018-Feb-12 16:59N 35°28' E 139°43'0 0.0
2018-Feb-12 16:29N 35°28' E 139°43'0 0.0
2018-Feb-12 15:59N 35°28' E 139°43'0 0.0
2018-Feb-12 15:29N 35°28' E 139°43'0 0.0
2018-Feb-12 14:59N 35°28' E 139°43'0 0.0
2018-Feb-12 14:29N 35°28' E 139°43'0 0.0
2018-Feb-12 13:59N 35°28' E 139°43'0 0.0
2018-Feb-12 13:29N 35°28' E 139°43'0 0.0
2018-Feb-12 12:59N 35°28' E 139°43'0 0.0
2018-Feb-12 12:29N 35°28' E 139°43'0 0.0
2018-Feb-12 11:59N 35°28' E 139°43'0 0.0
2018-Feb-12 11:29N 35°28' E 139°43'0 0.0
2018-Feb-12 10:59N 35°28' E 139°43'0 0.0
2018-Feb-12 10:29N 35°28' E 139°43'0 0.0
2018-Feb-12 09:59N 35°28' E 139°43'0 0.0
2018-Feb-12 09:29N 35°28' E 139°43'0 0.0
2018-Feb-12 08:59N 35°28' E 139°43'0 0.0
2018-Feb-12 08:29N 35°28' E 139°43'0 0.0
2018-Feb-12 07:59N 35°28' E 139°43'0 0.0
2018-Feb-12 07:29N 35°28' E 139°43'0 0.0
2018-Feb-12 06:59N 35°28' E 139°43'0 0.0
2018-Feb-12 06:29N 35°28' E 139°43'0 0.0
2018-Feb-12 05:59N 35°28' E 139°43'0 0.0
2018-Feb-12 05:29N 35°28' E 139°43'0 0.0
2018-Feb-12 04:59N 35°28' E 139°43'0 0.0
2018-Feb-12 04:29N 35°28' E 139°43'0 0.0
2018-Feb-12 03:59N 35°28' E 139°43'0 0.0
2018-Feb-12 03:29N 35°28' E 139°43'0 0.0
2018-Feb-12 02:59N 35°28' E 139°43'0 0.0
2018-Feb-12 02:29N 35°28' E 139°43'0 0.0
2018-Feb-12 01:59N 35°28' E 139°43'0 0.0
2018-Feb-12 01:29N 35°28' E 139°43'0 0.0
2018-Feb-12 00:59N 35°28' E 139°43'0 0.0
2018-Feb-12 00:29N 35°28' E 139°43'0 0.0
2018-Feb-11 23:59N 35°28' E 139°43'0 0.0
2018-Feb-11 23:29N 35°28' E 139°43'0 0.0
2018-Feb-11 22:59N 35°28' E 139°43'0 0.0
2018-Feb-11 22:29N 35°28' E 139°43'0 0.0
2018-Feb-11 21:59N 35°28' E 139°43'0 0.0
2018-Feb-11 21:29N 35°28' E 139°43'0 0.0
2018-Feb-11 20:59N 35°28' E 139°43'0 0.0
2018-Feb-11 20:29N 35°28' E 139°43'0 0.0
2018-Feb-11 19:59N 35°28' E 139°43'0 0.0
2018-Feb-11 19:29N 35°28' E 139°43'0 0.0
2018-Feb-11 18:59N 35°28' E 139°43'0 0.0
2018-Feb-11 18:29N 35°28' E 139°43'0 0.0
2018-Feb-11 17:59N 35°28' E 139°43'0 0.0
2018-Feb-11 17:29N 35°28' E 139°43'0 0.0
2018-Feb-11 16:59N 35°28' E 139°43'0 0.0
2018-Feb-11 16:29N 35°28' E 139°43'0 0.0
2018-Feb-11 15:59N 35°28' E 139°43'0 0.0
2018-Feb-11 15:29N 35°28' E 139°43'0 0.0
2018-Feb-11 14:59N 35°28' E 139°43'0 0.0
2018-Feb-11 14:29N 35°28' E 139°43'0 0.0
2018-Feb-11 13:59N 35°28' E 139°43'0 0.0
2018-Feb-11 13:29N 35°28' E 139°43'0 0.0
2018-Feb-11 12:59N 35°28' E 139°43'0 0.0
2018-Feb-11 12:29N 35°28' E 139°43'0 0.0
2018-Feb-11 11:59N 35°28' E 139°43'0 0.0
2018-Feb-11 11:29N 35°28' E 139°43'0 0.0
2018-Feb-11 10:59N 35°28' E 139°43'0 0.0
2018-Feb-11 10:29N 35°28' E 139°43'0 0.0
2018-Feb-11 09:59N 35°28' E 139°43'0 0.0
2018-Feb-11 09:29N 35°28' E 139°43'0 0.0
2018-Feb-11 08:59N 35°28' E 139°43'0 0.0
2018-Feb-11 08:29N 35°28' E 139°43'0 0.0
2018-Feb-11 07:59N 35°28' E 139°43'0 0.0
2018-Feb-11 07:29N 35°28' E 139°43'0 0.0
2018-Feb-11 06:58N 35°28' E 139°43'0 0.0
2018-Feb-11 06:28N 35°28' E 139°43'0 0.0
2018-Feb-11 05:58N 35°28' E 139°43'0 0.0
2018-Feb-11 05:28N 35°28' E 139°43'0 0.0
2018-Feb-11 04:58N 35°28' E 139°43'0 0.0
2018-Feb-11 04:28N 35°28' E 139°43'0 0.0
2018-Feb-11 03:58N 35°28' E 139°43'0 0.0
2018-Feb-11 03:28N 35°28' E 139°43'0 0.0
2018-Feb-11 02:58N 35°28' E 139°43'0 0.0
2018-Feb-11 02:28N 35°28' E 139°43'0 0.0
2018-Feb-11 01:58N 35°28' E 139°43'0 0.0
2018-Feb-11 01:28N 35°28' E 139°43'0 0.0
2018-Feb-11 00:58N 35°28' E 139°43'0 0.0
2018-Feb-11 00:28N 35°28' E 139°43'0 0.0
2018-Feb-10 23:58N 35°28' E 139°43'0 0.0
2018-Feb-10 23:28N 35°28' E 139°43'0 0.0
2018-Feb-10 22:58N 35°28' E 139°43'0 0.0
2018-Feb-10 22:28N 35°28' E 139°43'0 0.0
2018-Feb-10 21:58N 35°28' E 139°43'0 0.0
2018-Feb-10 21:28N 35°28' E 139°43'0 0.0
2018-Feb-10 20:58N 35°28' E 139°43'0 0.0
2018-Feb-10 20:28N 35°28' E 139°43'0 0.0
2018-Feb-10 19:58N 35°28' E 139°43'0 0.0
2018-Feb-10 19:28N 35°28' E 139°43'0 0.0
2018-Feb-10 18:58N 35°28' E 139°43'0 0.0
2018-Feb-10 18:28N 35°28' E 139°43'0 0.0
2018-Feb-10 17:58N 35°28' E 139°43'0 0.0
2018-Feb-10 17:28N 35°28' E 139°43'0 0.0
2018-Feb-10 16:58N 35°28' E 139°43'0 0.0
2018-Feb-10 16:28N 35°28' E 139°43'0 0.0
2018-Feb-10 15:58N 35°28' E 139°43'0 0.0
2018-Feb-10 15:28N 35°28' E 139°43'0 0.0
2018-Feb-10 14:58N 35°28' E 139°43'0 0.0
2018-Feb-10 14:28N 35°28' E 139°43'0 0.0
2018-Feb-10 13:58N 35°28' E 139°43'0 0.0
2018-Feb-10 13:28N 35°28' E 139°43'0 0.0
2018-Feb-10 12:58N 35°28' E 139°43'0 0.0
2018-Feb-10 12:28N 35°28' E 139°43'0 0.0
2018-Feb-10 11:58N 35°28' E 139°43'0 0.0
2018-Feb-10 11:28N 35°28' E 139°43'0 0.0
2018-Feb-10 10:58N 35°28' E 139°43'0 0.0
2018-Feb-10 10:25N 35°28' E 139°43'0 0.0
2018-Feb-10 09:58N 35°28' E 139°43'0 0.0
2018-Feb-10 09:28N 35°28' E 139°43'0 0.0
2018-Feb-10 08:55N 35°28' E 139°43'0 0.0
2018-Feb-10 08:28N 35°28' E 139°43'0 0.0
2018-Feb-10 07:58N 35°28' E 139°43'0 0.0
2018-Feb-10 07:28N 35°28' E 139°43'0 0.0
2018-Feb-10 06:58N 35°28' E 139°43'0 0.0
2018-Feb-10 06:28N 35°28' E 139°43'0 0.0
2018-Feb-10 05:58N 35°28' E 139°43'0 0.0
2018-Feb-10 05:28N 35°28' E 139°43'0 0.0
2018-Feb-10 04:58N 35°28' E 139°43'0 0.0
2018-Feb-10 04:28N 35°28' E 139°43'0 0.0
2018-Feb-10 03:58N 35°28' E 139°43'0 0.0
2018-Feb-10 03:28N 35°28' E 139°43'0 0.0
2018-Feb-10 02:58N 35°28' E 139°43'0 0.0
2018-Feb-10 02:28N 35°28' E 139°43'0 0.0
2018-Feb-10 01:58N 35°28' E 139°43'0 0.0
2018-Feb-10 01:28N 35°28' E 139°43'0 0.0
2018-Feb-10 00:58N 35°28' E 139°43'0 0.0
2018-Feb-10 00:28N 35°28' E 139°43'0 0.0
2018-Feb-09 23:58N 35°28' E 139°43'0 0.0
2018-Feb-09 23:28N 35°28' E 139°43'0 0.0
2018-Feb-09 22:58N 35°28' E 139°43'0 0.0
2018-Feb-09 22:46N 35°28' E 139°43'0 0.0
2018-Feb-09 19:01N 35°28' E 139°43'0 0.0
2018-Feb-09 18:31N 35°28' E 139°43'0 0.0
2018-Feb-09 18:00N 35°28' E 139°43'0 0.0
2018-Feb-09 17:00N 35°28' E 139°43'0 0.0
2018-Feb-09 16:30N 35°28' E 139°43'0 0.0
2018-Feb-09 16:00N 35°28' E 139°43'  
Track history (hours):
 
Tides and Currents Weather Stations Pressure Air Temp Water Temp Dewpoint Dewpoint Depression Visibility Wind Speed Wind Dir Waves Ship Positions

Horizon 9

Last reported at 2018-Feb-19 15:32 UTC. Time now 2018-Feb-20 17:11 UTC.
Position N 23°46' E 125°01'.

Length 120 m; draft 8.1 m.

Type: Cargo ship. MMSI: 374346000.

Date/timePositionNaut miles runAvg speedWind from/ knotsBaromVisibWave heightAir tempDewpointWater temp
2018-Feb-19 15:32N 23°46' E 125°01'011.0
2018-Feb-19 15:30N 23°46' E 125°01'810.3
2018-Feb-19 14:44N 23°51' E 125°08'  
2018-Feb-15 19:18N 34°21' E 138°25'3 8.9
2018-Feb-15 18:59N 34°22' E 138°28'5 9.0
2018-Feb-15 18:27N 34°24' E 138°34'4 9.0
2018-Feb-15 17:59N 34°26' E 138°38'6 9.2
2018-Feb-15 17:23N 34°28' E 138°44'6 9.6
2018-Feb-15 16:44N 34°31' E 138°51'210.1
2018-Feb-15 16:30N 34°32' E 138°54'510.2
2018-Feb-15 16:00N 34°34' E 138°59'611.1
2018-Feb-15 15:30N 34°38' E 139°04'810.2
2018-Feb-15 14:45N 34°44' E 139°10'310.8
2018-Feb-15 14:29N 34°46' E 139°12'510.2
2018-Feb-15 14:00N 34°50' E 139°16'5 9.2
2018-Feb-15 13:30N 34°53' E 139°21'5 9.3
2018-Feb-15 13:00N 34°55' E 139°26'510.1
2018-Feb-15 12:30N 34°58' E 139°31'610.7
2018-Feb-15 11:59N 35°02' E 139°36'511.0
2018-Feb-15 11:29N 35°05' E 139°41'510.6
2018-Feb-15 11:00N 35°09' E 139°45'611.8
2018-Feb-15 10:30N 35°15' E 139°46'611.8
2018-Feb-15 10:01N 35°20' E 139°43'511.0
2018-Feb-15 09:30N 35°25' E 139°44'3 6.2
2018-Feb-15 09:01N 35°28' E 139°43'0 0.1
2018-Feb-15 08:28N 35°28' E 139°43'0 0.0
2018-Feb-15 07:58N 35°28' E 139°43'0 0.0
2018-Feb-15 07:28N 35°28' E 139°43'0 0.0
2018-Feb-15 06:58N 35°28' E 139°43'0 0.0
2018-Feb-15 06:25N 35°28' E 139°43'0 0.0
2018-Feb-15 05:58N 35°28' E 139°43'0 0.0
2018-Feb-15 05:28N 35°28' E 139°43'0 0.0
2018-Feb-15 04:58N 35°28' E 139°43'0 0.0
2018-Feb-15 04:28N 35°28' E 139°43'0 0.0
2018-Feb-15 03:55N 35°28' E 139°43'0 0.0
2018-Feb-15 03:28N 35°28' E 139°43'0 0.0
2018-Feb-15 02:58N 35°28' E 139°43'0 0.0
2018-Feb-15 02:28N 35°28' E 139°43'0 0.0
2018-Feb-15 01:58N 35°28' E 139°43'0 0.0
2018-Feb-15 01:28N 35°28' E 139°43'0 0.0
2018-Feb-15 00:58N 35°28' E 139°43'0 0.0
2018-Feb-15 00:28N 35°28' E 139°43'0 0.0
2018-Feb-14 23:58N 35°28' E 139°43'0 0.0
2018-Feb-14 23:28N 35°28' E 139°43'0 0.0
2018-Feb-14 22:58N 35°28' E 139°43'0 0.0
2018-Feb-14 22:28N 35°28' E 139°43'0 0.0
2018-Feb-14 21:58N 35°28' E 139°43'0 0.0
2018-Feb-14 21:28N 35°28' E 139°43'0 0.0
2018-Feb-14 20:58N 35°28' E 139°43'0 0.0
2018-Feb-14 20:28N 35°28' E 139°43'0 0.0
2018-Feb-14 19:58N 35°28' E 139°43'0 0.0
2018-Feb-14 19:28N 35°28' E 139°43'0 0.0
2018-Feb-14 18:58N 35°28' E 139°43'0 0.0
2018-Feb-14 18:28N 35°28' E 139°43'0 0.0
2018-Feb-14 17:55N 35°28' E 139°43'0 0.0
2018-Feb-14 17:28N 35°28' E 139°43'0 0.0
2018-Feb-14 16:58N 35°28' E 139°43'0 0.0
2018-Feb-14 16:28N 35°28' E 139°43'0 0.0
2018-Feb-14 15:58N 35°28' E 139°43'0 0.0
2018-Feb-14 15:28N 35°28' E 139°43'0 0.0
2018-Feb-14 14:58N 35°28' E 139°43'0 0.0
2018-Feb-14 14:28N 35°28' E 139°43'0 0.0
2018-Feb-14 13:58N 35°28' E 139°43'0 0.0
2018-Feb-14 13:28N 35°28' E 139°43'0 0.0
2018-Feb-14 12:58N 35°28' E 139°43'0 0.0
2018-Feb-14 12:28N 35°28' E 139°43'0 0.0
2018-Feb-14 11:58N 35°28' E 139°43'0 0.0
2018-Feb-14 11:28N 35°28' E 139°43'0 0.0
2018-Feb-14 10:58N 35°28' E 139°43'0 0.0
2018-Feb-14 10:31N 35°28' E 139°43'0 0.0
2018-Feb-14 10:01N 35°28' E 139°43'0 0.0
2018-Feb-14 09:30N 35°28' E 139°43'0 0.0
2018-Feb-14 09:00N 35°28' E 139°43'0 0.0
2018-Feb-14 08:31N 35°28' E 139°43'0 0.0
2018-Feb-14 08:00N 35°28' E 139°43'0 0.0
2018-Feb-14 07:30N 35°28' E 139°43'0 0.0
2018-Feb-14 07:00N 35°28' E 139°43'0 0.0
2018-Feb-14 06:30N 35°28' E 139°43'0 0.0
2018-Feb-14 06:00N 35°28' E 139°43'0 0.0
2018-Feb-14 05:30N 35°28' E 139°43'0 0.0
2018-Feb-14 05:00N 35°28' E 139°43'0 0.0
2018-Feb-14 04:30N 35°28' E 139°43'0 0.0
2018-Feb-14 04:00N 35°28' E 139°43'0 0.0
2018-Feb-14 03:30N 35°28' E 139°43'0 0.0
2018-Feb-14 03:00N 35°28' E 139°43'0 0.0
2018-Feb-14 02:30N 35°28' E 139°43'0 0.0
2018-Feb-14 02:00N 35°28' E 139°43'0 0.0
2018-Feb-14 01:30N 35°28' E 139°43'0 0.0
2018-Feb-14 01:00N 35°28' E 139°43'0 0.0
2018-Feb-14 00:30N 35°28' E 139°43'0 0.0
2018-Feb-14 00:00N 35°28' E 139°43'0 0.0
2018-Feb-13 23:30N 35°28' E 139°43'0 0.0
2018-Feb-13 23:00N 35°28' E 139°43'0 0.0
2018-Feb-13 22:30N 35°28' E 139°43'0 0.0
2018-Feb-13 22:00N 35°28' E 139°43'0 0.0
2018-Feb-13 21:30N 35°28' E 139°43'0 0.0
2018-Feb-13 21:00N 35°28' E 139°43'0 0.0
2018-Feb-13 20:30N 35°28' E 139°43'0 0.0
2018-Feb-13 20:00N 35°28' E 139°43'0 0.0
2018-Feb-13 19:30N 35°28' E 139°43'0 0.0
2018-Feb-13 19:00N 35°28' E 139°43'0 0.0
2018-Feb-13 18:30N 35°28' E 139°43'0 0.0
2018-Feb-13 18:00N 35°28' E 139°43'0 0.0
2018-Feb-13 17:30N 35°28' E 139°43'0 0.0
2018-Feb-13 17:00N 35°28' E 139°43'0 0.0
2018-Feb-13 16:30N 35°28' E 139°43'0 0.0
2018-Feb-13 16:00N 35°28' E 139°43'0 0.0
2018-Feb-13 15:30N 35°28' E 139°43'0 0.0
2018-Feb-13 15:00N 35°28' E 139°43'0 0.0
2018-Feb-13 14:30N 35°28' E 139°43'0 0.0
2018-Feb-13 14:00N 35°28' E 139°43'0 0.0
2018-Feb-13 13:30N 35°28' E 139°43'0 0.0
2018-Feb-13 13:00N 35°28' E 139°43'0 0.0
2018-Feb-13 12:30N 35°28' E 139°43'0 0.0
2018-Feb-13 12:00N 35°28' E 139°43'0 0.0
2018-Feb-13 11:30N 35°28' E 139°43'0 0.0
2018-Feb-13 11:00N 35°28' E 139°43'0 0.0
2018-Feb-13 10:30N 35°28' E 139°43'0 0.0
2018-Feb-13 10:00N 35°28' E 139°43'0 0.0
2018-Feb-13 09:30N 35°28' E 139°43'0 0.0
2018-Feb-13 09:00N 35°28' E 139°43'0 0.0
2018-Feb-13 08:30N 35°28' E 139°43'0 0.0
2018-Feb-13 08:00N 35°28' E 139°43'0 0.0
2018-Feb-13 07:30N 35°28' E 139°43'0 0.0
2018-Feb-13 07:00N 35°28' E 139°43'0 0.0
2018-Feb-13 06:30N 35°28' E 139°43'0 0.0
2018-Feb-13 06:00N 35°28' E 139°43'0 0.0
2018-Feb-13 05:30N 35°28' E 139°43'0 0.0
2018-Feb-13 05:00N 35°28' E 139°43'0 0.0
2018-Feb-13 04:30N 35°28' E 139°43'0 0.0
2018-Feb-13 04:00N 35°28' E 139°43'0 0.0
2018-Feb-13 03:30N 35°28' E 139°43'0 0.0
2018-Feb-13 03:00N 35°28' E 139°43'0 0.0
2018-Feb-13 02:30N 35°28' E 139°43'0 0.0
2018-Feb-13 02:00N 35°28' E 139°43'0 0.0
2018-Feb-13 01:30N 35°28' E 139°43'0 0.0
2018-Feb-13 01:00N 35°28' E 139°43'0 0.0
2018-Feb-13 00:30N 35°28' E 139°43'0 0.0
2018-Feb-13 00:00N 35°28' E 139°43'0 0.0
2018-Feb-12 23:30N 35°28' E 139°43'0 0.0
2018-Feb-12 23:00N 35°28' E 139°43'0 0.0
2018-Feb-12 22:30N 35°28' E 139°43'0 0.0
2018-Feb-12 22:00N 35°28' E 139°43'0 0.0
2018-Feb-12 21:30N 35°28' E 139°43'0 0.0
2018-Feb-12 20:54N 35°28' E 139°43'0 0.0
2018-Feb-12 20:30N 35°28' E 139°43'0 0.0
2018-Feb-12 19:59N 35°28' E 139°43'0 0.0
2018-Feb-12 19:29N 35°28' E 139°43'0 0.0
2018-Feb-12 18:59N 35°28' E 139°43'0 0.0
2018-Feb-12 18:29N 35°28' E 139°43'0 0.0
2018-Feb-12 17:59N 35°28' E 139°43'0 0.0
2018-Feb-12 17:29N 35°28' E 139°43'0 0.0
2018-Feb-12 16:59N 35°28' E 139°43'0 0.0
2018-Feb-12 16:29N 35°28' E 139°43'0 0.0
2018-Feb-12 15:59N 35°28' E 139°43'0 0.0
2018-Feb-12 15:29N 35°28' E 139°43'0 0.0
2018-Feb-12 14:59N 35°28' E 139°43'0 0.0
2018-Feb-12 14:29N 35°28' E 139°43'0 0.0
2018-Feb-12 13:59N 35°28' E 139°43'0 0.0
2018-Feb-12 13:29N 35°28' E 139°43'0 0.0
2018-Feb-12 12:59N 35°28' E 139°43'0 0.0
2018-Feb-12 12:29N 35°28' E 139°43'0 0.0
2018-Feb-12 11:59N 35°28' E 139°43'0 0.0
2018-Feb-12 11:29N 35°28' E 139°43'0 0.0
2018-Feb-12 10:59N 35°28' E 139°43'0 0.0
2018-Feb-12 10:29N 35°28' E 139°43'0 0.0
2018-Feb-12 09:59N 35°28' E 139°43'0 0.0
2018-Feb-12 09:29N 35°28' E 139°43'0 0.0
2018-Feb-12 08:59N 35°28' E 139°43'0 0.0
2018-Feb-12 08:29N 35°28' E 139°43'0 0.0
2018-Feb-12 07:59N 35°28' E 139°43'0 0.0
2018-Feb-12 07:29N 35°28' E 139°43'0 0.0
2018-Feb-12 06:59N 35°28' E 139°43'0 0.0
2018-Feb-12 06:29N 35°28' E 139°43'0 0.0
2018-Feb-12 05:59N 35°28' E 139°43'0 0.0
2018-Feb-12 05:29N 35°28' E 139°43'0 0.0
2018-Feb-12 04:59N 35°28' E 139°43'0 0.0
2018-Feb-12 04:29N 35°28' E 139°43'0 0.0
2018-Feb-12 03:59N 35°28' E 139°43'0 0.0
2018-Feb-12 03:29N 35°28' E 139°43'0 0.0
2018-Feb-12 02:59N 35°28' E 139°43'0 0.0
2018-Feb-12 02:29N 35°28' E 139°43'0 0.0
2018-Feb-12 01:59N 35°28' E 139°43'0 0.0
2018-Feb-12 01:29N 35°28' E 139°43'0 0.0
2018-Feb-12 00:59N 35°28' E 139°43'0 0.0
2018-Feb-12 00:29N 35°28' E 139°43'0 0.0
2018-Feb-11 23:59N 35°28' E 139°43'0 0.0
2018-Feb-11 23:29N 35°28' E 139°43'0 0.0
2018-Feb-11 22:59N 35°28' E 139°43'0 0.0
2018-Feb-11 22:29N 35°28' E 139°43'0 0.0
2018-Feb-11 21:59N 35°28' E 139°43'0 0.0
2018-Feb-11 21:29N 35°28' E 139°43'0 0.0
2018-Feb-11 20:59N 35°28' E 139°43'0 0.0
2018-Feb-11 20:29N 35°28' E 139°43'0 0.0
2018-Feb-11 19:59N 35°28' E 139°43'0 0.0
2018-Feb-11 19:29N 35°28' E 139°43'0 0.0
2018-Feb-11 18:59N 35°28' E 139°43'0 0.0
2018-Feb-11 18:29N 35°28' E 139°43'0 0.0
2018-Feb-11 17:59N 35°28' E 139°43'0 0.0
2018-Feb-11 17:29N 35°28' E 139°43'0 0.0
2018-Feb-11 16:59N 35°28' E 139°43'0 0.0
2018-Feb-11 16:29N 35°28' E 139°43'0 0.0
2018-Feb-11 15:59N 35°28' E 139°43'0 0.0
2018-Feb-11 15:29N 35°28' E 139°43'0 0.0
2018-Feb-11 14:59N 35°28' E 139°43'0 0.0
2018-Feb-11 14:29N 35°28' E 139°43'0 0.0
2018-Feb-11 13:59N 35°28' E 139°43'0 0.0
2018-Feb-11 13:29N 35°28' E 139°43'0 0.0
2018-Feb-11 12:59N 35°28' E 139°43'0 0.0
2018-Feb-11 12:29N 35°28' E 139°43'0 0.0
2018-Feb-11 11:59N 35°28' E 139°43'0 0.0
2018-Feb-11 11:29N 35°28' E 139°43'0 0.0
2018-Feb-11 10:59N 35°28' E 139°43'0 0.0
2018-Feb-11 10:29N 35°28' E 139°43'0 0.0
2018-Feb-11 09:59N 35°28' E 139°43'0 0.0
2018-Feb-11 09:29N 35°28' E 139°43'0 0.0
2018-Feb-11 08:59N 35°28' E 139°43'0 0.0
2018-Feb-11 08:29N 35°28' E 139°43'0 0.0
2018-Feb-11 07:59N 35°28' E 139°43'0 0.0
2018-Feb-11 07:29N 35°28' E 139°43'0 0.0
2018-Feb-11 06:58N 35°28' E 139°43'0 0.0
2018-Feb-11 06:28N 35°28' E 139°43'0 0.0
2018-Feb-11 05:58N 35°28' E 139°43'0 0.0
2018-Feb-11 05:28N 35°28' E 139°43'0 0.0
2018-Feb-11 04:58N 35°28' E 139°43'0 0.0
2018-Feb-11 04:28N 35°28' E 139°43'0 0.0
2018-Feb-11 03:58N 35°28' E 139°43'0 0.0
2018-Feb-11 03:28N 35°28' E 139°43'0 0.0
2018-Feb-11 02:58N 35°28' E 139°43'0 0.0
2018-Feb-11 02:28N 35°28' E 139°43'0 0.0
2018-Feb-11 01:58N 35°28' E 139°43'0 0.0
2018-Feb-11 01:28N 35°28' E 139°43'0 0.0
2018-Feb-11 00:58N 35°28' E 139°43'0 0.0
2018-Feb-11 00:28N 35°28' E 139°43'0 0.0
2018-Feb-10 23:58N 35°28' E 139°43'0 0.0
2018-Feb-10 23:28N 35°28' E 139°43'0 0.0
2018-Feb-10 22:58N 35°28' E 139°43'0 0.0
2018-Feb-10 22:28N 35°28' E 139°43'0 0.0
2018-Feb-10 21:58N 35°28' E 139°43'0 0.0
2018-Feb-10 21:28N 35°28' E 139°43'0 0.0
2018-Feb-10 20:58N 35°28' E 139°43'0 0.0
2018-Feb-10 20:28N 35°28' E 139°43'0 0.0
2018-Feb-10 19:58N 35°28' E 139°43'0 0.0
2018-Feb-10 19:28N 35°28' E 139°43'0 0.0
2018-Feb-10 18:58N 35°28' E 139°43'0 0.0
2018-Feb-10 18:28N 35°28' E 139°43'0 0.0
2018-Feb-10 17:58N 35°28' E 139°43'0 0.0
2018-Feb-10 17:28N 35°28' E 139°43'0 0.0
2018-Feb-10 16:58N 35°28' E 139°43'0 0.0
2018-Feb-10 16:28N 35°28' E 139°43'0 0.0
2018-Feb-10 15:58N 35°28' E 139°43'0 0.0
2018-Feb-10 15:28N 35°28' E 139°43'0 0.0
2018-Feb-10 14:58N 35°28' E 139°43'0 0.0
2018-Feb-10 14:28N 35°28' E 139°43'0 0.0
2018-Feb-10 13:58N 35°28' E 139°43'0 0.0
2018-Feb-10 13:28N 35°28' E 139°43'0 0.0
2018-Feb-10 12:58N 35°28' E 139°43'0 0.0
2018-Feb-10 12:28N 35°28' E 139°43'0 0.0
2018-Feb-10 11:58N 35°28' E 139°43'0 0.0
2018-Feb-10 11:28N 35°28' E 139°43'0 0.0
2018-Feb-10 10:58N 35°28' E 139°43'0 0.0
2018-Feb-10 10:25N 35°28' E 139°43'0 0.0
2018-Feb-10 09:58N 35°28' E 139°43'0 0.0
2018-Feb-10 09:28N 35°28' E 139°43'0 0.0
2018-Feb-10 08:55N 35°28' E 139°43'0 0.0
2018-Feb-10 08:28N 35°28' E 139°43'0 0.0
2018-Feb-10 07:58N 35°28' E 139°43'0 0.0
2018-Feb-10 07:28N 35°28' E 139°43'0 0.0
2018-Feb-10 06:58N 35°28' E 139°43'0 0.0
2018-Feb-10 06:28N 35°28' E 139°43'0 0.0
2018-Feb-10 05:58N 35°28' E 139°43'0 0.0
2018-Feb-10 05:28N 35°28' E 139°43'0 0.0
2018-Feb-10 04:58N 35°28' E 139°43'0 0.0
2018-Feb-10 04:28N 35°28' E 139°43'0 0.0
2018-Feb-10 03:58N 35°28' E 139°43'0 0.0
2018-Feb-10 03:28N 35°28' E 139°43'0 0.0
2018-Feb-10 02:58N 35°28' E 139°43'0 0.0
2018-Feb-10 02:28N 35°28' E 139°43'0 0.0
2018-Feb-10 01:58N 35°28' E 139°43'0 0.0
2018-Feb-10 01:28N 35°28' E 139°43'0 0.0
2018-Feb-10 00:58N 35°28' E 139°43'0 0.0
2018-Feb-10 00:28N 35°28' E 139°43'0 0.0
2018-Feb-09 23:58N 35°28' E 139°43'0 0.0
2018-Feb-09 23:28N 35°28' E 139°43'0 0.0
2018-Feb-09 22:58N 35°28' E 139°43'0 0.0
2018-Feb-09 22:46N 35°28' E 139°43'0 0.0
2018-Feb-09 19:01N 35°28' E 139°43'0 0.0
2018-Feb-09 18:31N 35°28' E 139°43'0 0.0
2018-Feb-09 18:00N 35°28' E 139°43'0 0.0
2018-Feb-09 17:00N 35°28' E 139°43'0 0.0
2018-Feb-09 16:30N 35°28' E 139°43'0 0.0
2018-Feb-09 16:00N 35°28' E 139°43'  

Dump ship's entire track history